sensor_id;sensor_type;location;lat;lon;timestamp;pressure;altitude;pressure_sealevel;temperature;humidity
74529;BME280;63009;52.584;5.932;2023-08-06T00:00:15;100516.28;;;13.82;100.00
74529;BME280;63009;52.584;5.932;2023-08-06T00:02:40;100514.81;;;13.78;100.00
74529;BME280;63009;52.584;5.932;2023-08-06T00:05:06;100521.59;;;13.82;100.00
74529;BME280;63009;52.584;5.932;2023-08-06T00:07:31;100523.28;;;13.83;100.00
74529;BME280;63009;52.584;5.932;2023-08-06T00:09:57;100509.50;;;13.78;100.00
74529;BME280;63009;52.584;5.932;2023-08-06T00:12:22;100513.75;;;13.81;100.00
74529;BME280;63009;52.584;5.932;2023-08-06T00:14:51;100520.13;;;13.78;100.00
74529;BME280;63009;52.584;5.932;2023-08-06T00:17:17;100509.97;;;13.72;100.00
74529;BME280;63009;52.584;5.932;2023-08-06T00:19:42;100503.56;;;13.75;100.00
74529;BME280;63009;52.584;5.932;2023-08-06T00:22:07;100499.34;;;13.72;100.00
74529;BME280;63009;52.584;5.932;2023-08-06T00:24:34;100511.31;;;13.78;100.00
74529;BME280;63009;52.584;5.932;2023-08-06T00:26:59;100504.81;;;13.82;100.00
74529;BME280;63009;52.584;5.932;2023-08-06T00:29:24;100504.94;;;13.80;100.00
74529;BME280;63009;52.584;5.932;2023-08-06T00:31:49;100500.81;;;13.76;100.00
74529;BME280;63009;52.584;5.932;2023-08-06T00:34:15;100495.38;;;13.78;100.00
74529;BME280;63009;52.584;5.932;2023-08-06T00:36:40;100504.81;;;13.82;100.00
74529;BME280;63009;52.584;5.932;2023-08-06T00:39:05;100496.97;;;13.80;100.00
74529;BME280;63009;52.584;5.932;2023-08-06T00:41:32;100487.41;;;13.78;100.00
74529;BME280;63009;52.584;5.932;2023-08-06T00:43:57;100494.75;;;13.74;100.00
74529;BME280;63009;52.584;5.932;2023-08-06T00:46:23;100487.88;;;13.72;100.00
74529;BME280;63009;52.584;5.932;2023-08-06T00:48:48;100496.81;;;13.71;100.00
74529;BME280;63009;52.584;5.932;2023-08-06T00:51:15;100499.00;;;13.77;100.00
74529;BME280;63009;52.584;5.932;2023-08-06T00:53:41;100499.00;;;13.77;100.00
74529;BME280;63009;52.584;5.932;2023-08-06T00:56:07;100482.56;;;13.72;100.00
74529;BME280;63009;52.584;5.932;2023-08-06T00:58:34;100499.00;;;13.77;100.00
74529;BME280;63009;52.584;5.932;2023-08-06T01:01:00;100488.47;;;13.75;100.00
74529;BME280;63009;52.584;5.932;2023-08-06T01:03:26;100485.94;;;13.74;100.00
74529;BME280;63009;52.584;5.932;2023-08-06T01:05:51;100476.66;;;13.68;100.00
74529;BME280;63009;52.584;5.932;2023-08-06T01:08:30;100491.03;;;13.77;100.00
74529;BME280;63009;52.584;5.932;2023-08-06T01:13:44;100488.47;;;13.75;100.00
74529;BME280;63009;52.584;5.932;2023-08-06T01:16:15;100487.63;;;13.75;100.00
74529;BME280;63009;52.584;5.932;2023-08-06T01:18:40;100489.69;;;13.71;100.00
74529;BME280;63009;52.584;5.932;2023-08-06T01:21:07;100494.41;;;13.68;100.00
74529;BME280;63009;52.584;5.932;2023-08-06T01:23:32;100491.50;;;13.71;100.00
74529;BME280;63009;52.584;5.932;2023-08-06T01:28:59;100498.16;;;13.76;100.00
74529;BME280;63009;52.584;5.932;2023-08-06T01:31:37;100487.03;;;13.71;100.00
74529;BME280;63009;52.584;5.932;2023-08-06T01:34:05;100486.19;;;13.71;100.00
74529;BME280;63009;52.584;5.932;2023-08-06T01:36:32;100496.56;;;13.74;100.00
74529;BME280;63009;52.584;5.932;2023-08-06T01:38:57;100482.94;;;13.67;100.00
74529;BME280;63009;52.584;5.932;2023-08-06T01:41:23;100481.25;;;13.66;100.00
74529;BME280;63009;52.584;5.932;2023-08-06T01:43:48;100488.47;;;13.75;100.00
74529;BME280;63009;52.584;5.932;2023-08-06T01:46:13;100488.47;;;13.75;100.00
74529;BME280;63009;52.584;5.932;2023-08-06T01:48:39;100494.03;;;13.72;100.00
74529;BME280;63009;52.584;5.932;2023-08-06T01:51:04;100483.41;;;13.72;100.00
74529;BME280;63009;52.584;5.932;2023-08-06T01:53:30;100483.16;;;13.75;100.00
74529;BME280;63009;52.584;5.932;2023-08-06T01:55:56;100483.16;;;13.75;100.00
74529;BME280;63009;52.584;5.932;2023-08-06T01:58:22;100475.69;;;13.69;100.00
74529;BME280;63009;52.584;5.932;2023-08-06T02:00:47;100483.16;;;13.75;100.00
74529;BME280;63009;52.584;5.932;2023-08-06T02:03:12;100475.69;;;13.69;100.00
74529;BME280;63009;52.584;5.932;2023-08-06T02:05:37;100488.59;;;13.74;100.00
74529;BME280;63009;52.584;5.932;2023-08-06T02:08:03;100479.44;;;13.66;100.00
74529;BME280;63009;52.584;5.932;2023-08-06T02:10:28;100471.81;;;13.62;100.00
74529;BME280;63009;52.584;5.932;2023-08-06T02:12:53;100482.53;;;13.60;100.00
74529;BME280;63009;52.584;5.932;2023-08-06T02:15:19;100487.72;;;13.62;100.00
74529;BME280;63009;52.584;5.932;2023-08-06T02:17:44;100485.06;;;13.62;100.00
74529;BME280;63009;52.584;5.932;2023-08-06T02:20:09;100482.31;;;13.63;100.00
74529;BME280;63009;52.584;5.932;2023-08-06T02:22:35;100474.47;;;13.62;100.00
74529;BME280;63009;52.584;5.932;2023-08-06T02:25:00;100468.53;;;13.58;100.00
74529;BME280;63009;52.584;5.932;2023-08-06T02:27:25;100472.66;;;13.62;100.00
74529;BME280;63009;52.584;5.932;2023-08-06T02:29:50;100459.00;;;13.56;100.00
74529;BME280;63009;52.584;5.932;2023-08-06T02:32:16;100461.66;;;13.56;100.00
74529;BME280;63009;52.584;5.932;2023-08-06T02:34:41;100461.53;;;13.57;100.00
74529;BME280;63009;52.584;5.932;2023-08-06T02:37:06;100463.13;;;13.60;100.00
74529;BME280;63009;52.584;5.932;2023-08-06T02:39:32;100465.88;;;13.58;100.00
74529;BME280;63009;52.584;5.932;2023-08-06T02:41:58;100464.19;;;13.57;100.00
74529;BME280;63009;52.584;5.932;2023-08-06T02:44:27;100470.84;;;13.63;100.00
74529;BME280;63009;52.584;5.932;2023-08-06T02:46:52;100466.00;;;13.57;100.00
74529;BME280;63009;52.584;5.932;2023-08-06T02:49:17;100470.84;;;13.63;100.00
74529;BME280;63009;52.584;5.932;2023-08-06T02:51:45;100462.03;;;13.62;100.00
74529;BME280;63009;52.584;5.932;2023-08-06T02:54:10;100457.81;;;13.60;100.00
74529;BME280;63009;52.584;5.932;2023-08-06T02:56:35;100455.03;;;13.61;100.00
74529;BME280;63009;52.584;5.932;2023-08-06T02:59:00;100460.84;;;13.66;100.00
74529;BME280;63009;52.584;5.932;2023-08-06T03:01:26;100457.56;;;13.63;100.00
74529;BME280;63009;52.584;5.932;2023-08-06T03:03:52;100449.84;;;13.60;100.00
74529;BME280;63009;52.584;5.932;2023-08-06T03:06:17;100435.34;;;13.53;100.00
74529;BME280;63009;52.584;5.932;2023-08-06T03:08:42;100449.00;;;13.59;100.00
74529;BME280;63009;52.584;5.932;2023-08-06T03:11:07;100447.31;;;13.58;100.00
74529;BME280;63009;52.584;5.932;2023-08-06T03:13:33;100434.13;;;13.46;100.00
74529;BME280;63009;52.584;5.932;2023-08-06T03:15:59;100460.56;;;13.58;100.00
74529;BME280;63009;52.584;5.932;2023-08-06T03:18:25;100452.97;;;13.54;100.00
74529;BME280;63009;52.584;5.932;2023-08-06T03:20:53;100447.66;;;13.54;100.00
74529;BME280;63009;52.584;5.932;2023-08-06T03:23:18;100452.13;;;13.53;100.00
74529;BME280;63009;52.584;5.932;2023-08-06T03:25:44;100431.94;;;13.51;100.00
74529;BME280;63009;52.584;5.932;2023-08-06T03:28:09;100442.97;;;13.57;100.00
74529;BME280;63009;52.584;5.932;2023-08-06T03:30:34;100451.03;;;13.56;100.00
74529;BME280;63009;52.584;5.932;2023-08-06T03:33:00;100447.66;;;13.54;100.00
74529;BME280;63009;52.584;5.932;2023-08-06T03:35:25;100447.06;;;13.61;100.00
74529;BME280;63009;52.584;5.932;2023-08-06T03:37:50;100451.41;;;13.62;100.00
74529;BME280;63009;52.584;5.932;2023-08-06T03:40:16;100444.66;;;13.58;100.00
74529;BME280;63009;52.584;5.932;2023-08-06T03:42:41;100451.28;;;13.53;100.00
74529;BME280;63009;52.584;5.932;2023-08-06T03:45:07;100456.13;;;13.59;100.00
74529;BME280;63009;52.584;5.932;2023-08-06T03:47:32;100457.81;;;13.60;100.00
74529;BME280;63009;52.584;5.932;2023-08-06T03:49:58;100468.19;;;13.63;100.00
74529;BME280;63009;52.584;5.932;2023-08-06T03:52:23;100460.47;;;13.60;100.00
74529;BME280;63009;52.584;5.932;2023-08-06T03:54:48;100469.16;;;13.62;100.00
74529;BME280;63009;52.584;5.932;2023-08-06T03:57:14;100459.38;;;13.62;100.00
74529;BME280;63009;52.584;5.932;2023-08-06T03:59:39;100454.06;;;13.62;100.00
74529;BME280;63009;52.584;5.932;2023-08-06T04:02:04;100456.84;;;13.61;100.00
74529;BME280;63009;52.584;5.932;2023-08-06T04:04:30;100445.72;;;13.56;100.00
74529;BME280;63009;52.584;5.932;2023-08-06T04:06:55;100449.97;;;13.70;100.00
74529;BME280;63009;52.584;5.932;2023-08-06T04:09:20;100457.56;;;13.63;100.00
74529;BME280;63009;52.584;5.932;2023-08-06T04:11:45;100460.59;;;13.70;100.00
74529;BME280;63009;52.584;5.932;2023-08-06T04:14:11;100456.84;;;13.72;100.00
74529;BME280;63009;52.584;5.932;2023-08-06T04:16:36;100457.81;;;13.71;100.00
74529;BME280;63009;52.584;5.932;2023-08-06T04:19:01;100456.00;;;13.72;100.00
74529;BME280;63009;52.584;5.932;2023-08-06T04:21:26;100458.78;;;13.70;100.00
74529;BME280;63009;52.584;5.932;2023-08-06T04:23:52;100457.69;;;13.73;100.00
74529;BME280;63009;52.584;5.932;2023-08-06T04:26:17;100455.88;;;13.73;100.00
74529;BME280;63009;52.584;5.932;2023-08-06T04:28:42;100458.78;;;13.70;100.00
74529;BME280;63009;52.584;5.932;2023-08-06T04:31:08;100443.31;;;13.64;100.00
74529;BME280;63009;52.584;5.932;2023-08-06T04:33:33;100455.16;;;13.71;100.00
74529;BME280;63009;52.584;5.932;2023-08-06T04:35:59;100458.78;;;13.70;100.00
74529;BME280;63009;52.584;5.932;2023-08-06T04:38:24;100452.16;;;13.76;100.00
74529;BME280;63009;52.584;5.932;2023-08-06T04:40:53;100457.34;;;13.77;100.00
74529;BME280;63009;52.584;5.932;2023-08-06T04:43:18;100460.84;;;13.78;100.00
74529;BME280;63009;52.584;5.932;2023-08-06T04:45:48;100465.69;;;13.84;100.00
74529;BME280;63009;52.584;5.932;2023-08-06T04:48:13;100468.69;;;13.79;100.00
74529;BME280;63009;52.584;5.932;2023-08-06T04:50:43;100457.69;;;13.73;100.00
74529;BME280;63009;52.584;5.932;2023-08-06T04:53:09;100471.59;;;13.76;100.00
74529;BME280;63009;52.584;5.932;2023-08-06T04:55:34;100475.72;;;13.80;100.00
74529;BME280;63009;52.584;5.932;2023-08-06T04:57:59;100478.38;;;13.80;100.00
74529;BME280;63009;52.584;5.932;2023-08-06T05:00:25;100480.78;;;13.83;100.00
74529;BME280;63009;52.584;5.932;2023-08-06T05:02:50;100479.81;;;13.84;100.00
74529;BME280;63009;52.584;5.932;2023-08-06T05:05:15;100460.63;;;13.81;100.00
74529;BME280;63009;52.584;5.932;2023-08-06T05:07:40;100478.34;;;13.91;100.00
74529;BME280;63009;52.584;5.932;2023-08-06T05:10:06;100477.38;;;13.92;100.00
74529;BME280;63009;52.584;5.932;2023-08-06T05:12:31;100477.38;;;13.92;100.00
74529;BME280;63009;52.584;5.932;2023-08-06T05:14:57;100482.63;;;13.94;100.00
74529;BME280;63009;52.584;5.932;2023-08-06T05:17:22;100473.16;;;13.90;100.00
74529;BME280;63009;52.584;5.932;2023-08-06T05:19:48;100477.06;;;13.97;100.00
74529;BME280;63009;52.584;5.932;2023-08-06T05:22:13;100486.59;;;14.00;100.00
74529;BME280;63009;52.584;5.932;2023-08-06T05:24:39;100480.06;;;14.04;100.00
74529;BME280;63009;52.584;5.932;2023-08-06T05:27:04;100472.59;;;13.98;100.00
74529;BME280;63009;52.584;5.932;2023-08-06T05:29:30;100483.69;;;14.03;100.00
74529;BME280;63009;52.584;5.932;2023-08-06T05:31:55;100492.88;;;14.10;100.00
74529;BME280;63009;52.584;5.932;2023-08-06T05:34:20;100485.97;;;14.07;100.00
74529;BME280;63009;52.584;5.932;2023-08-06T05:36:46;100489.38;;;14.09;100.00
74529;BME280;63009;52.584;5.932;2023-08-06T05:39:11;100484.91;;;14.10;100.00
74529;BME280;63009;52.584;5.932;2023-08-06T05:41:36;100480.06;;;14.15;100.00
74529;BME280;63009;52.584;5.932;2023-08-06T05:44:01;100491.78;;;14.12;100.00
74529;BME280;63009;52.584;5.932;2023-08-06T05:46:27;100491.78;;;14.12;100.00
74529;BME280;63009;52.584;5.932;2023-08-06T05:48:52;100485.63;;;14.12;100.00
74529;BME280;63009;52.584;5.932;2023-08-06T05:51:17;100497.22;;;14.11;100.00
74529;BME280;63009;52.584;5.932;2023-08-06T05:53:43;100492.97;;;14.19;100.00
74529;BME280;63009;52.584;5.932;2023-08-06T05:56:08;100492.50;;;14.25;100.00
74529;BME280;63009;52.584;5.932;2023-08-06T05:58:33;100508.34;;;14.27;100.00
74529;BME280;63009;52.584;5.932;2023-08-06T06:00:58;100498.91;;;14.23;100.00
74529;BME280;63009;52.584;5.932;2023-08-06T06:03:24;100502.91;;;14.29;100.00
74529;BME280;63009;52.584;5.932;2023-08-06T06:05:49;100497.97;;;14.24;100.00
74529;BME280;63009;52.584;5.932;2023-08-06T06:08:14;100508.47;;;14.25;100.00
74529;BME280;63009;52.584;5.932;2023-08-06T06:10:39;100506.78;;;14.24;100.00
74529;BME280;63009;52.584;5.932;2023-08-06T06:13:05;100508.22;;;14.29;100.00
74529;BME280;63009;52.584;5.932;2023-08-06T06:15:30;100511.00;;;14.27;100.00
74529;BME280;63009;52.584;5.932;2023-08-06T06:17:55;100506.78;;;14.24;100.00
74529;BME280;63009;52.584;5.932;2023-08-06T06:20:21;100496.34;;;14.21;100.00
74529;BME280;63009;52.584;5.932;2023-08-06T06:22:46;100511.59;;;14.31;100.00
74529;BME280;63009;52.584;5.932;2023-08-06T06:25:12;100518.25;;;14.36;100.00
74529;BME280;63009;52.584;5.932;2023-08-06T06:27:37;100512.44;;;14.31;100.00
74529;BME280;63009;52.584;5.932;2023-08-06T06:30:03;100516.19;;;14.40;100.00
74529;BME280;63009;52.584;5.932;2023-08-06T06:32:29;100521.38;;;14.41;100.00
74529;BME280;63009;52.584;5.932;2023-08-06T06:34:54;100530.31;;;14.40;100.00
74529;BME280;63009;52.584;5.932;2023-08-06T06:37:19;100525.00;;;14.40;100.00
74529;BME280;63009;52.584;5.932;2023-08-06T06:39:45;100527.19;;;14.46;100.00
74529;BME280;63009;52.584;5.932;2023-08-06T06:42:10;100518.72;;;14.41;100.00
74529;BME280;63009;52.584;5.932;2023-08-06T06:44:35;100529.72;;;14.48;100.00
74529;BME280;63009;52.584;5.932;2023-08-06T06:47:01;100520.91;;;14.47;100.00
74529;BME280;63009;52.584;5.932;2023-08-06T06:49:26;100528.66;;;14.50;100.00
74529;BME280;63009;52.584;5.932;2023-08-06T06:51:51;100523.81;;;14.44;100.00
74529;BME280;63009;52.584;5.932;2023-08-06T06:54:16;100525.25;;;14.48;100.00
74529;BME280;63009;52.584;5.932;2023-08-06T06:56:42;100534.19;;;14.59;100.00
74529;BME280;63009;52.584;5.932;2023-08-06T06:59:07;100539.28;;;14.62;100.00
74529;BME280;63009;52.584;5.932;2023-08-06T07:01:32;100529.00;;;14.57;100.00
74529;BME280;63009;52.584;5.932;2023-08-06T07:03:58;100538.22;;;14.64;100.00
74529;BME280;63009;52.584;5.932;2023-08-06T07:06:23;100528.75;;;14.60;100.00
74529;BME280;63009;52.584;5.932;2023-08-06T07:08:48;100543.03;;;14.70;100.00
74529;BME280;63009;52.584;5.932;2023-08-06T07:11:13;100531.41;;;14.71;100.00
74529;BME280;63009;52.584;5.932;2023-08-06T07:13:39;100543.13;;;14.80;100.00
74529;BME280;63009;52.584;5.932;2023-08-06T07:16:04;100539.25;;;14.84;100.00
74529;BME280;63009;52.584;5.932;2023-08-06T07:18:29;100543.34;;;14.88;100.00
74529;BME280;63009;52.584;5.932;2023-08-06T07:20:55;100537.28;;;14.97;100.00
74529;BME280;63009;52.584;5.932;2023-08-06T07:23:22;100548.31;;;14.93;100.00
74529;BME280;63009;52.584;5.932;2023-08-06T07:25:48;100545.88;;;14.90;100.00
74529;BME280;63009;52.584;5.932;2023-08-06T07:28:14;100547.22;;;14.84;100.00
74529;BME280;63009;52.584;5.932;2023-08-06T07:30:40;100547.69;;;14.89;100.00
74529;BME280;63009;52.584;5.932;2023-08-06T07:33:06;100544.81;;;14.92;100.00
74529;BME280;63009;52.584;5.932;2023-08-06T07:35:31;100556.75;;;14.98;100.00
74529;BME280;63009;52.584;5.932;2023-08-06T07:37:57;100562.91;;;15.09;100.00
74529;BME280;63009;52.584;5.932;2023-08-06T07:40:22;100563.63;;;15.11;100.00
74529;BME280;63009;52.584;5.932;2023-08-06T07:42:47;100556.22;;;15.15;100.00
74529;BME280;63009;52.584;5.932;2023-08-06T07:45:14;100560.09;;;15.22;100.00
74529;BME280;63009;52.584;5.932;2023-08-06T07:47:39;100564.88;;;15.28;100.00
74529;BME280;63009;52.584;5.932;2023-08-06T07:50:05;100563.53;;;15.34;100.00
74529;BME280;63009;52.584;5.932;2023-08-06T07:52:30;100557.34;;;15.33;100.00
74529;BME280;63009;52.584;5.932;2023-08-06T07:54:55;100556.28;;;15.36;100.00
74529;BME280;63009;52.584;5.932;2023-08-06T07:57:21;100555.13;;;15.50;100.00
74529;BME280;63009;52.584;5.932;2023-08-06T07:59:46;100553.63;;;15.57;100.00
74529;BME280;63009;52.584;5.932;2023-08-06T08:02:11;100559.22;;;15.65;100.00
74529;BME280;63009;52.584;5.932;2023-08-06T08:04:36;100558.53;;;15.72;100.00
74529;BME280;63009;52.584;5.932;2023-08-06T08:07:02;100560.84;;;15.77;100.00
74529;BME280;63009;52.584;5.932;2023-08-06T08:09:27;100552.72;;;15.79;100.00
74529;BME280;63009;52.584;5.932;2023-08-06T08:11:53;100564.66;;;15.84;100.00
74529;BME280;63009;52.584;5.932;2023-08-06T08:14:18;100554.13;;;15.83;100.00
74529;BME280;63009;52.584;5.932;2023-08-06T08:16:43;100552.19;;;15.85;100.00
74529;BME280;63009;52.584;5.932;2023-08-06T08:19:08;100568.38;;;15.93;100.00
74529;BME280;63009;52.584;5.932;2023-08-06T08:21:34;100556.59;;;15.95;100.00
74529;BME280;63009;52.584;5.932;2023-08-06T08:24:00;100565.03;;;16.00;100.00
74529;BME280;63009;52.584;5.932;2023-08-06T08:26:26;100562.00;;;16.05;100.00
74529;BME280;63009;52.584;5.932;2023-08-06T08:28:53;100561.59;;;16.10;100.00
74529;BME280;63009;52.584;5.932;2023-08-06T08:31:18;100563.44;;;16.09;100.00
74529;BME280;63009;52.584;5.932;2023-08-06T08:33:43;100562.88;;;16.15;100.00
74529;BME280;63009;52.584;5.932;2023-08-06T08:36:09;100555.16;;;16.12;100.00
74529;BME280;63009;52.584;5.932;2023-08-06T08:38:35;100560.34;;;16.14;100.00
74529;BME280;63009;52.584;5.932;2023-08-06T08:41:00;100569.25;;;16.24;100.00
74529;BME280;63009;52.584;5.932;2023-08-06T08:43:26;100575.88;;;16.29;100.00
74529;BME280;63009;52.584;5.932;2023-08-06T08:45:53;100571.66;;;16.27;100.00
74529;BME280;63009;52.584;5.932;2023-08-06T08:48:24;100568.56;;;16.31;100.00
74529;BME280;63009;52.584;5.932;2023-08-06T08:50:50;100568.72;;;16.30;100.00
74529;BME280;63009;52.584;5.932;2023-08-06T08:53:16;100568.00;;;16.28;100.00
74529;BME280;63009;52.584;5.932;2023-08-06T08:55:43;100576.19;;;16.36;100.00
74529;BME280;63009;52.584;5.932;2023-08-06T08:58:10;100576.50;;;16.43;100.00
74529;BME280;63009;52.584;5.932;2023-08-06T09:00:35;100576.78;;;16.40;100.00
74529;BME280;63009;52.584;5.932;2023-08-06T09:03:02;100575.09;;;16.39;100.00
74529;BME280;63009;52.584;5.932;2023-08-06T09:05:31;100585.19;;;16.45;100.00
74529;BME280;63009;52.584;5.932;2023-08-06T09:08:04;100579.63;;;16.48;100.00
74529;BME280;63009;52.584;5.932;2023-08-06T09:10:30;100584.69;;;16.51;100.00
74529;BME280;63009;52.584;5.932;2023-08-06T09:12:56;100586.09;;;16.55;100.00
74529;BME280;63009;52.584;5.932;2023-08-06T09:15:26;100587.66;;;16.57;100.00
74529;BME280;63009;52.584;5.932;2023-08-06T09:17:53;100588.19;;;16.51;100.00
74529;BME280;63009;52.584;5.932;2023-08-06T09:20:18;100593.13;;;16.56;100.00
74529;BME280;63009;52.584;5.932;2023-08-06T09:22:43;100593.22;;;16.45;100.00
74529;BME280;63009;52.584;5.932;2023-08-06T09:25:10;100584.41;;;16.54;100.00
74529;BME280;63009;52.584;5.932;2023-08-06T09:27:37;100600.19;;;16.67;100.00
74529;BME280;63009;52.584;5.932;2023-08-06T09:30:04;100607.53;;;16.74;100.00
74529;BME280;63009;52.584;5.932;2023-08-06T09:32:48;100601.84;;;16.88;100.00
74529;BME280;63009;52.584;5.932;2023-08-06T09:35:19;100607.06;;;16.90;100.00
74529;BME280;63009;52.584;5.932;2023-08-06T09:37:45;100606.69;;;17.04;100.00
74529;BME280;63009;52.584;5.932;2023-08-06T09:40:28;100605.00;;;17.13;100.00
74529;BME280;63009;52.584;5.932;2023-08-06T09:42:54;100615.13;;;17.09;100.00
74529;BME280;63009;52.584;5.932;2023-08-06T09:45:20;100616.66;;;17.12;100.00
74529;BME280;63009;52.584;5.932;2023-08-06T09:47:47;100608.13;;;17.28;100.00
74529;BME280;63009;52.584;5.932;2023-08-06T09:50:19;100614.19;;;17.39;100.00
74529;BME280;63009;52.584;5.932;2023-08-06T09:52:47;100613.06;;;17.51;100.00
74529;BME280;63009;52.584;5.932;2023-08-06T09:55:14;100622.66;;;17.64;100.00
74529;BME280;63009;52.584;5.932;2023-08-06T09:57:40;100623.94;;;17.79;100.00
74529;BME280;63009;52.584;5.932;2023-08-06T10:00:07;100618.59;;;17.89;100.00
74529;BME280;63009;52.584;5.932;2023-08-06T10:02:35;100619.00;;;18.03;100.00
74529;BME280;63009;52.584;5.932;2023-08-06T10:05:02;100624.06;;;18.16;100.00
74529;BME280;63009;52.584;5.932;2023-08-06T10:07:29;100616.41;;;18.31;100.00
74529;BME280;63009;52.584;5.932;2023-08-06T10:09:55;100607.78;;;18.37;100.00
74529;BME280;63009;52.584;5.932;2023-08-06T10:12:21;100617.34;;;18.49;100.00
74529;BME280;63009;52.584;5.932;2023-08-06T10:14:51;100624.91;;;18.54;100.00
74529;BME280;63009;52.584;5.932;2023-08-06T10:17:19;100600.41;;;18.58;100.00
74529;BME280;63009;52.584;5.932;2023-08-06T10:19:45;100610.59;;;18.82;100.00
74529;BME280;63009;52.584;5.932;2023-08-06T10:22:13;100620.09;;;19.04;100.00
74529;BME280;63009;52.584;5.932;2023-08-06T10:24:52;100616.06;;;19.18;99.17
74529;BME280;63009;52.584;5.932;2023-08-06T10:27:36;100609.97;;;19.43;100.00
74529;BME280;63009;52.584;5.932;2023-08-06T10:30:23;100611.00;;;19.60;99.49
74529;BME280;63009;52.584;5.932;2023-08-06T10:32:49;100623.22;;;19.80;99.13
74529;BME280;63009;52.584;5.932;2023-08-06T10:35:35;100615.13;;;19.72;96.62
74529;BME280;63009;52.584;5.932;2023-08-06T10:38:05;100612.75;;;19.87;97.85
74529;BME280;63009;52.584;5.932;2023-08-06T10:40:32;100610.28;;;19.94;95.41
74529;BME280;63009;52.584;5.932;2023-08-06T10:42:59;100610.13;;;20.21;97.07
74529;BME280;63009;52.584;5.932;2023-08-06T10:45:25;100611.91;;;20.38;93.70
74529;BME280;63009;52.584;5.932;2023-08-06T10:47:54;100608.69;;;20.53;93.88
74529;BME280;63009;52.584;5.932;2023-08-06T10:50:21;100613.81;;;20.20;92.21
74529;BME280;63009;52.584;5.932;2023-08-06T10:52:47;100619.13;;;20.38;94.20
74529;BME280;63009;52.584;5.932;2023-08-06T10:55:22;100616.75;;;20.53;92.14
74529;BME280;63009;52.584;5.932;2023-08-06T10:57:48;100612.94;;;20.63;91.55
74529;BME280;63009;52.584;5.932;2023-08-06T11:00:13;100617.97;;;20.58;90.07
74529;BME280;63009;52.584;5.932;2023-08-06T11:02:39;100613.88;;;20.54;91.69
74529;BME280;63009;52.584;5.932;2023-08-06T11:05:08;100622.50;;;20.40;91.51
74529;BME280;63009;52.584;5.932;2023-08-06T11:07:38;100613.94;;;20.36;91.75
74529;BME280;63009;52.584;5.932;2023-08-06T11:10:05;100611.03;;;20.30;91.29
74529;BME280;63009;52.584;5.932;2023-08-06T11:12:32;100608.81;;;20.43;93.14
74529;BME280;63009;52.584;5.932;2023-08-06T11:14:58;100601.47;;;20.27;89.54
74529;BME280;63009;52.584;5.932;2023-08-06T11:17:23;100616.00;;;20.16;89.08
74529;BME280;63009;52.584;5.932;2023-08-06T11:19:49;100609.53;;;20.09;89.83
74529;BME280;63009;52.584;5.932;2023-08-06T11:22:16;100601.81;;;20.06;90.19
74529;BME280;63009;52.584;5.932;2023-08-06T11:24:42;100615.63;;;19.94;92.51
74529;BME280;63009;52.584;5.932;2023-08-06T11:27:14;100610.06;;;19.87;93.02
74529;BME280;63009;52.584;5.932;2023-08-06T11:29:41;100610.91;;;19.88;94.68
74529;BME280;63009;52.584;5.932;2023-08-06T11:32:07;100604.16;;;19.66;94.88
74529;BME280;63009;52.584;5.932;2023-08-06T11:34:33;100601.00;;;19.52;95.87
74529;BME280;63009;52.584;5.932;2023-08-06T11:36:58;100611.66;;;19.44;95.09
74529;BME280;63009;52.584;5.932;2023-08-06T11:39:24;100623.78;;;19.21;98.04
74529;BME280;63009;52.584;5.932;2023-08-06T11:41:50;100625.16;;;19.07;100.00
74529;BME280;63009;52.584;5.932;2023-08-06T11:44:18;100616.91;;;18.91;100.00
74529;BME280;63009;52.584;5.932;2023-08-06T11:46:54;100621.59;;;18.89;100.00
74529;BME280;63009;52.584;5.932;2023-08-06T11:54:43;100608.56;;;18.57;100.00
74529;BME280;63009;52.584;5.932;2023-08-06T11:57:09;100610.41;;;18.66;100.00
74529;BME280;63009;52.584;5.932;2023-08-06T11:59:37;100603.56;;;18.81;100.00
74529;BME280;63009;52.584;5.932;2023-08-06T12:02:03;100610.66;;;19.00;100.00
74529;BME280;63009;52.584;5.932;2023-08-06T12:04:31;100619.31;;;19.12;100.00
74529;BME280;63009;52.584;5.932;2023-08-06T12:07:04;100615.63;;;18.95;96.63
74529;BME280;63009;52.584;5.932;2023-08-06T12:09:29;100598.66;;;19.04;98.73
74529;BME280;63009;52.584;5.932;2023-08-06T12:11:55;100604.25;;;19.11;98.36
74529;BME280;63009;52.584;5.932;2023-08-06T12:14:20;100609.50;;;19.30;98.40
74529;BME280;63009;52.584;5.932;2023-08-06T12:16:45;100610.34;;;19.31;95.73
74529;BME280;63009;52.584;5.932;2023-08-06T12:19:11;100600.16;;;19.34;95.87
74529;BME280;63009;52.584;5.932;2023-08-06T12:21:36;100620.59;;;19.53;96.71
74529;BME280;63009;52.584;5.932;2023-08-06T12:24:01;100615.53;;;19.60;93.90
74529;BME280;63009;52.584;5.932;2023-08-06T12:26:26;100616.53;;;19.59;93.64
74529;BME280;63009;52.584;5.932;2023-08-06T12:28:52;100626.63;;;19.65;91.66
74529;BME280;63009;52.584;5.932;2023-08-06T12:31:20;100618.25;;;19.68;93.68
74529;BME280;63009;52.584;5.932;2023-08-06T12:33:45;100626.22;;;19.77;96.32
74529;BME280;63009;52.584;5.932;2023-08-06T12:36:10;100620.72;;;19.79;95.81
74529;BME280;63009;52.584;5.932;2023-08-06T12:38:35;100620.78;;;19.69;94.04
74529;BME280;63009;52.584;5.932;2023-08-06T12:41:01;100625.09;;;19.62;98.31
74529;BME280;63009;52.584;5.932;2023-08-06T12:43:26;100639.38;;;19.53;100.00
74529;BME280;63009;52.584;5.932;2023-08-06T12:45:51;100618.84;;;19.44;100.00